Disclaimer

Please do not use the information listed here in-flight or in-navigation, as they are not provided to us by the airports but are provided by volunteers, so they might be outdated.

Search


Regions


Airport information page

Radio informations:
NIAMEY TWR - 119.7 MHz
NIAMEY INFO - 5652 MHz
NIAMEY CON - 131.3 MHz

Airport informations:
Latitude: 13° 28' 53.57" N
Longitude: 002° 11' 01.01" E
Elevation: 732 feet - 223 meters
Operating hours: 24 hour operations
Operating agency: Military-civil joint use airport
Timezone: UTC+1
Fuel: Jet A1, without icing nhibitor.

100/130 MIL Spec, low lead, aviation gasoline (BLUE)

Runway information:
09R/27L - 9843 x 148 feet< - >3000 x 45 meters
09L/27R - 5315 x 131 feet< - >1620 x 40 meters

Recent METARs:
DRRN 131800Z 06005KT 7000 NSC 32/M02 Q1009 NOSIG
DRRN 131900Z 05005KT 7000 NSC 30/M01 Q1010 NOSIG
DRRN 131900Z 05005KT 7000 NSC 30/M01 Q1010 NOSIG

Airport on the map: